createdAt,value
2022-10-11T00:00:53.725Z,9.30
2022-10-11T00:03:33.670Z,8.70
2022-10-11T00:06:03.747Z,9.60
2022-10-11T00:08:32.740Z,9.80
2022-10-11T00:11:01.837Z,8.80
2022-10-11T00:13:29.656Z,9.20
2022-10-11T00:15:57.580Z,9.10
2022-10-11T00:18:25.611Z,8.60
2022-10-11T00:21:03.607Z,8.40
2022-10-11T00:23:31.369Z,9.80
2022-10-11T00:26:00.299Z,8.70
2022-10-11T00:28:28.308Z,8.90
2022-10-11T00:30:56.162Z,9.40
2022-10-11T00:33:23.931Z,10.20
2022-10-11T00:35:52.917Z,8.90
2022-10-11T00:38:20.637Z,9.80
2022-10-11T00:40:48.565Z,9.40
2022-10-11T00:43:17.866Z,9.60
2022-10-11T00:45:58.133Z,8.40
2022-10-11T00:48:40.910Z,8.60
2022-10-11T00:51:17.181Z,9.60
2022-10-11T00:53:47.165Z,11.00
2022-10-11T00:56:18.894Z,10.30
2022-10-11T00:58:46.781Z,10.40
2022-10-11T01:01:14.746Z,9.50
2022-10-11T01:03:42.678Z,10.00
2022-10-11T01:06:10.386Z,10.30
2022-10-11T01:08:38.772Z,9.80
2022-10-11T01:11:06.683Z,9.80
2022-10-11T01:13:44.459Z,9.60
2022-10-11T01:16:17.441Z,9.70
2022-10-11T01:18:49.551Z,9.90
2022-10-11T01:21:29.746Z,9.40
2022-10-11T01:23:57.412Z,9.50
2022-10-11T01:26:49.872Z,10.30
2022-10-11T01:29:41.181Z,11.50
2022-10-11T01:32:15.421Z,9.90
2022-10-11T01:34:52.170Z,9.30
2022-10-11T01:37:46.986Z,10.70
2022-10-11T01:40:21.964Z,9.80
2022-10-11T01:42:50.325Z,9.80
2022-10-11T01:45:19.874Z,10.60
2022-10-11T01:47:51.473Z,9.90
2022-10-11T01:50:31.299Z,10.30
2022-10-11T01:53:03.318Z,9.80
2022-10-11T01:55:35.677Z,10.30
2022-10-11T01:58:12.532Z,10.30
2022-10-11T02:00:46.657Z,10.40
2022-10-11T02:03:22.633Z,10.20
2022-10-11T02:05:55.755Z,10.10
2022-10-11T02:08:42.289Z,9.70
2022-10-11T02:11:16.342Z,11.60
2022-10-11T02:16:12.923Z,10.10
2022-10-11T02:18:46.984Z,10.20
2022-10-11T02:23:48.346Z,10.10
2022-10-11T02:26:17.008Z,10.70
2022-10-11T02:28:53.239Z,10.80
2022-10-11T02:31:22.335Z,11.60
2022-10-11T02:33:53.909Z,10.80
2022-10-11T02:36:26.131Z,11.50
2022-10-11T02:38:56.120Z,11.40
2022-10-11T02:41:36.569Z,10.70
2022-10-11T02:44:06.723Z,10.30
2022-10-11T02:46:34.832Z,11.10
2022-10-11T02:49:03.249Z,11.40
2022-10-11T02:51:37.811Z,11.50
2022-10-11T02:54:11.686Z,11.60
2022-10-11T02:56:45.870Z,10.90
2022-10-11T02:59:17.918Z,10.50
2022-10-11T03:01:45.730Z,10.40
2022-10-11T03:04:14.372Z,11.90
2022-10-11T03:06:42.419Z,12.30
2022-10-11T03:09:10.337Z,13.00
2022-10-11T03:11:38.111Z,12.50
2022-10-11T03:14:05.789Z,13.40
2022-10-11T03:16:33.561Z,14.50
2022-10-11T03:19:01.240Z,13.60
2022-10-11T03:21:28.976Z,12.50
2022-10-11T03:23:56.837Z,13.80
2022-10-11T03:26:24.592Z,14.40
2022-10-11T03:28:52.815Z,12.90
2022-10-11T03:31:22.214Z,15.60
2022-10-11T03:33:50.308Z,15.30
2022-10-11T03:36:18.142Z,15.30
2022-10-11T03:38:46.364Z,14.80
2022-10-11T03:41:14.122Z,15.40
2022-10-11T03:43:41.843Z,15.50
2022-10-11T03:46:09.555Z,16.90
2022-10-11T03:48:37.443Z,15.90
2022-10-11T03:51:05.272Z,17.20
2022-10-11T03:53:32.932Z,16.60
2022-10-11T03:56:04.575Z,17.50
2022-10-11T03:58:35.369Z,17.90
2022-10-11T04:01:03.233Z,17.30
2022-10-11T04:03:31.001Z,18.60
2022-10-11T04:05:58.713Z,17.60
2022-10-11T04:08:32.794Z,17.00
2022-10-11T04:11:00.703Z,16.80
2022-10-11T04:13:28.650Z,18.10
2022-10-11T04:15:56.454Z,16.70
2022-10-11T04:18:24.169Z,16.80
2022-10-11T04:20:51.969Z,17.00
2022-10-11T04:23:19.749Z,16.40
2022-10-11T04:25:48.417Z,17.20
2022-10-11T04:28:16.088Z,16.50
2022-10-11T04:30:43.820Z,17.30
2022-10-11T04:33:12.140Z,17.20
2022-10-11T04:35:40.164Z,17.80
2022-10-11T04:38:07.735Z,18.10
2022-10-11T04:40:35.495Z,16.90
2022-10-11T04:43:03.184Z,17.30
2022-10-11T04:45:31.140Z,18.10
2022-10-11T04:47:59.022Z,16.40
2022-10-11T04:50:26.746Z,17.80
2022-10-11T04:52:58.466Z,18.40
2022-10-11T04:55:29.168Z,16.00
2022-10-11T04:57:57.008Z,18.20
2022-10-11T05:00:24.646Z,16.90
2022-10-11T05:02:54.554Z,16.50
2022-10-11T05:05:23.419Z,17.60
2022-10-11T05:07:53.898Z,17.00
2022-10-11T05:10:21.602Z,15.90
2022-10-11T05:12:49.302Z,17.30
2022-10-11T05:15:18.619Z,16.50
2022-10-11T05:17:46.638Z,19.20
2022-10-11T05:20:14.278Z,19.00
2022-10-11T05:22:41.939Z,18.10
2022-10-11T05:25:09.667Z,16.00
2022-10-11T05:27:37.274Z,17.40
2022-10-11T05:30:05.340Z,17.60
2022-10-11T05:32:33.022Z,18.40
2022-10-11T05:35:00.681Z,19.00
2022-10-11T05:37:28.284Z,17.40
2022-10-11T05:39:56.049Z,17.70
2022-10-11T05:42:30.693Z,17.90
2022-10-11T05:44:58.474Z,19.20
2022-10-11T05:47:26.233Z,17.70
2022-10-11T05:49:54.033Z,16.70
2022-10-11T05:52:21.664Z,16.70
2022-10-11T05:54:49.305Z,17.80
2022-10-11T05:57:17.000Z,15.80
2022-10-11T05:59:44.713Z,18.40
2022-10-11T06:02:15.920Z,16.50
2022-10-11T06:04:43.753Z,17.00
2022-10-11T06:07:11.475Z,16.20
2022-10-11T06:09:39.847Z,18.40
2022-10-11T06:12:07.570Z,15.70
2022-10-11T06:14:35.662Z,16.20
2022-10-11T06:17:03.356Z,16.20
2022-10-11T06:19:31.601Z,14.50
2022-10-11T06:21:59.238Z,13.80
2022-10-11T06:24:26.865Z,14.00
2022-10-11T06:26:55.724Z,14.90
2022-10-11T06:29:23.372Z,13.00
2022-10-11T06:31:50.987Z,11.20
2022-10-11T06:34:18.593Z,13.60
2022-10-11T06:36:46.202Z,14.20
2022-10-11T06:39:13.980Z,13.30
2022-10-11T06:41:41.688Z,12.90
2022-10-11T06:44:14.329Z,12.50
2022-10-11T06:46:42.474Z,12.70
2022-10-11T06:49:10.209Z,11.90
2022-10-11T06:51:37.905Z,10.00
2022-10-11T06:54:05.592Z,10.40
2022-10-11T06:56:33.166Z,13.50
2022-10-11T06:59:00.842Z,11.00
2022-10-11T07:01:28.714Z,11.20
2022-10-11T07:03:58.584Z,10.10
2022-10-11T07:06:28.039Z,9.90
2022-10-11T07:08:56.039Z,11.70
2022-10-11T07:11:30.891Z,9.70
2022-10-11T07:13:59.813Z,9.60
2022-10-11T07:16:28.464Z,9.20
2022-10-11T07:19:01.398Z,9.40
2022-10-11T07:21:30.158Z,8.20
2022-10-11T07:23:58.066Z,7.80
2022-10-11T07:26:26.069Z,7.00
2022-10-11T07:28:53.968Z,7.30
2022-10-11T07:31:22.966Z,6.00
2022-10-11T07:33:50.785Z,7.40
2022-10-11T07:36:18.464Z,6.30
2022-10-11T07:38:47.124Z,6.50
2022-10-11T07:41:21.756Z,6.30
2022-10-11T07:43:56.353Z,6.00
2022-10-11T07:46:27.892Z,5.90
2022-10-11T07:48:55.549Z,6.30
2022-10-11T07:51:24.440Z,6.00
2022-10-11T07:53:54.658Z,5.70
2022-10-11T07:56:24.144Z,5.40
2022-10-11T07:59:03.560Z,4.90
2022-10-11T08:01:31.936Z,5.50
2022-10-11T08:04:00.031Z,5.00
2022-10-11T08:06:31.872Z,4.60
2022-10-11T08:09:04.030Z,4.80
2022-10-11T08:11:33.624Z,5.80
2022-10-11T08:14:02.537Z,5.70
2022-10-11T08:16:30.917Z,4.40
2022-10-11T08:18:58.780Z,3.80
2022-10-11T08:21:26.983Z,4.30
2022-10-11T08:23:54.989Z,5.10
2022-10-11T08:26:28.620Z,4.70
2022-10-11T08:28:56.460Z,4.50
2022-10-11T08:31:24.257Z,4.10
2022-10-11T08:33:51.868Z,4.10
2022-10-11T08:36:19.497Z,4.20
2022-10-11T08:38:47.234Z,4.20
2022-10-11T08:41:15.007Z,4.30
2022-10-11T08:43:46.101Z,4.00
2022-10-11T08:46:14.464Z,3.90
2022-10-11T08:48:43.440Z,4.10
2022-10-11T08:51:18.311Z,3.40
2022-10-11T08:53:51.287Z,3.10
2022-10-11T08:56:20.430Z,3.10
2022-10-11T08:58:57.785Z,4.50
2022-10-11T09:01:30.969Z,3.60
2022-10-11T09:04:00.220Z,4.10
2022-10-11T09:06:36.052Z,2.90
2022-10-11T09:09:22.676Z,4.40
2022-10-11T09:11:50.364Z,3.10
2022-10-11T09:14:17.937Z,3.10
2022-10-11T09:16:50.287Z,4.40
2022-10-11T09:19:34.822Z,2.80
2022-10-11T09:22:08.519Z,3.10
2022-10-11T09:24:45.714Z,2.30
2022-10-11T09:27:19.328Z,2.40
2022-10-11T09:30:02.185Z,3.90
2022-10-11T09:32:36.325Z,2.50
2022-10-11T09:35:12.781Z,2.50
2022-10-11T09:37:44.465Z,2.50
2022-10-11T09:40:30.736Z,3.00
2022-10-11T09:42:59.552Z,2.60
2022-10-11T09:45:27.139Z,3.40
2022-10-11T09:47:56.075Z,3.40
2022-10-11T09:50:26.354Z,3.60
2022-10-11T09:52:55.774Z,2.60
2022-10-11T09:55:35.268Z,2.70
2022-10-11T09:58:04.775Z,2.90
2022-10-11T10:00:34.348Z,2.40
2022-10-11T10:03:22.003Z,2.80
2022-10-11T10:06:08.510Z,2.30
2022-10-11T10:08:37.109Z,3.20
2022-10-11T10:11:07.303Z,3.40
2022-10-11T10:13:46.336Z,3.00
2022-10-11T10:16:22.127Z,3.20
2022-10-11T10:19:00.836Z,3.60
2022-10-11T10:21:31.450Z,2.70
2022-10-11T10:24:03.199Z,3.70
2022-10-11T10:26:31.496Z,3.90
2022-10-11T10:29:02.435Z,3.20
2022-10-11T10:32:01.576Z,3.70
2022-10-11T10:34:34.175Z,3.30
2022-10-11T10:37:01.932Z,3.60
2022-10-11T10:39:44.745Z,2.70
2022-10-11T10:42:17.186Z,3.00
2022-10-11T10:44:47.509Z,4.00
2022-10-11T10:47:30.528Z,3.40
2022-10-11T10:50:05.779Z,3.30
2022-10-11T10:52:36.195Z,3.50
2022-10-11T10:55:12.250Z,3.40
2022-10-11T10:57:39.853Z,3.10
2022-10-11T11:00:10.382Z,3.30
2022-10-11T11:02:44.336Z,3.50
2022-10-11T11:07:39.830Z,3.60
2022-10-11T11:10:13.969Z,3.90
2022-10-11T11:13:01.407Z,2.50
2022-10-11T11:16:05.487Z,2.90
2022-10-11T11:18:46.705Z,2.90
2022-10-11T11:21:25.306Z,2.60
2022-10-11T11:24:13.190Z,2.60
2022-10-11T11:26:49.946Z,3.40
2022-10-11T11:29:50.761Z,3.70
2022-10-11T11:32:44.777Z,3.50
2022-10-11T11:35:27.351Z,3.20
2022-10-11T11:38:02.549Z,3.30
2022-10-11T11:40:35.533Z,3.70
2022-10-11T11:43:30.083Z,3.40
2022-10-11T11:48:26.531Z,3.10
2022-10-11T11:51:07.683Z,2.60
2022-10-11T11:53:54.692Z,2.50
2022-10-11T11:56:26.928Z,3.20
2022-10-11T11:59:06.561Z,3.50
2022-10-11T12:01:45.176Z,2.70
2022-10-11T12:04:19.231Z,3.20
2022-10-11T12:07:18.313Z,3.00
2022-10-11T12:09:50.686Z,3.70
2022-10-11T12:12:29.759Z,2.90
2022-10-11T12:15:03.582Z,2.90
2022-10-11T12:20:01.882Z,3.70
2022-10-11T12:22:29.574Z,3.10
2022-10-11T12:24:58.803Z,2.50
2022-10-11T12:27:44.044Z,2.70
2022-10-11T12:30:30.633Z,2.70
2022-10-11T12:33:27.504Z,3.30
2022-10-11T12:35:58.307Z,2.90
2022-10-11T12:38:30.200Z,2.30
2022-10-11T12:41:10.065Z,2.80
2022-10-11T12:43:50.066Z,3.60
2022-10-11T12:46:31.685Z,2.80
2022-10-11T12:49:07.648Z,2.90
2022-10-11T12:51:39.974Z,2.80
2022-10-11T12:54:26.039Z,2.60
2022-10-11T12:56:57.698Z,2.90
2022-10-11T12:59:25.877Z,2.90
2022-10-11T13:01:55.006Z,3.50
2022-10-11T13:04:25.398Z,2.90
2022-10-11T13:06:54.727Z,2.80
2022-10-11T13:09:49.317Z,2.90
2022-10-11T13:12:19.547Z,2.40
2022-10-11T13:15:03.449Z,3.60
2022-10-11T13:17:37.977Z,3.70
2022-10-11T13:20:06.144Z,3.00
2022-10-11T13:22:54.879Z,3.10
2022-10-11T13:25:24.175Z,3.00
2022-10-11T13:27:53.316Z,3.20
2022-10-11T13:30:24.222Z,3.00
2022-10-11T13:32:52.662Z,3.20
2022-10-11T13:35:25.144Z,2.50
2022-10-11T13:37:56.843Z,2.80
2022-10-11T13:40:31.908Z,2.80
2022-10-11T13:43:06.417Z,3.40
2022-10-11T13:45:41.535Z,3.30
2022-10-11T13:48:14.608Z,3.50
2022-10-11T13:51:07.480Z,3.60
2022-10-11T13:53:35.707Z,2.70
2022-10-11T13:56:05.861Z,2.60
2022-10-11T13:58:40.530Z,2.40
2022-10-11T14:01:19.687Z,2.40
2022-10-11T14:03:49.118Z,3.40
2022-10-11T14:06:16.772Z,2.30
2022-10-11T14:08:58.680Z,3.00
2022-10-11T14:11:37.711Z,2.90
2022-10-11T14:14:24.340Z,3.00
2022-10-11T14:16:59.410Z,2.70
2022-10-11T14:19:27.178Z,2.60
2022-10-11T14:21:54.923Z,3.20
2022-10-11T14:24:22.689Z,3.50
2022-10-11T14:26:54.553Z,3.10
2022-10-11T14:29:26.876Z,4.10
2022-10-11T14:32:03.024Z,3.60
2022-10-11T14:34:31.183Z,3.30
2022-10-11T14:36:58.903Z,3.30
2022-10-11T14:39:29.596Z,2.90
2022-10-11T14:41:57.983Z,3.20
2022-10-11T14:44:25.585Z,3.20
2022-10-11T14:46:54.788Z,3.10
2022-10-11T14:49:26.663Z,3.20
2022-10-11T14:51:55.370Z,3.60
2022-10-11T14:54:24.135Z,3.80
2022-10-11T14:56:52.785Z,3.70
2022-10-11T14:59:21.973Z,3.60
2022-10-11T15:01:52.082Z,3.70
2022-10-11T15:04:24.621Z,5.30
2022-10-11T15:06:53.438Z,4.90
2022-10-11T15:09:21.389Z,4.50
2022-10-11T15:11:52.888Z,4.20
2022-10-11T15:14:21.376Z,4.60
2022-10-11T15:16:49.076Z,4.50
2022-10-11T15:19:18.494Z,5.20
2022-10-11T15:21:46.348Z,4.70
2022-10-11T15:24:14.214Z,5.40
2022-10-11T15:26:42.089Z,4.60
2022-10-11T15:29:10.740Z,9.00
2022-10-11T15:31:38.783Z,23.10
2022-10-11T15:34:13.269Z,71.80
2022-10-11T15:36:40.946Z,116.30
2022-10-11T15:39:37.225Z,74.80
2022-10-11T15:42:05.289Z,26.60
2022-10-11T15:44:33.027Z,37.40
2022-10-11T15:47:00.717Z,68.50
2022-10-11T15:49:28.971Z,45.90
2022-10-11T15:51:57.243Z,54.50
2022-10-11T15:54:24.967Z,18.60
2022-10-11T15:56:52.710Z,14.40
2022-10-11T15:59:20.471Z,30.30
2022-10-11T16:01:48.283Z,31.30
2022-10-11T16:04:16.143Z,21.50
2022-10-11T16:06:43.946Z,24.90
2022-10-11T16:09:11.686Z,35.30
2022-10-11T16:11:40.353Z,34.10
2022-10-11T16:14:08.196Z,31.70
2022-10-11T16:16:37.094Z,27.00
2022-10-11T16:19:04.939Z,20.50
2022-10-11T16:21:34.173Z,19.00
2022-10-11T16:24:01.918Z,16.00
2022-10-11T16:26:29.608Z,18.70
2022-10-11T16:28:57.824Z,14.00
2022-10-11T16:31:25.641Z,13.50
2022-10-11T16:33:53.411Z,11.70
2022-10-11T16:36:32.181Z,16.10
2022-10-11T16:39:08.649Z,12.20
2022-10-11T16:41:36.934Z,12.90
2022-10-11T16:44:05.419Z,21.00
2022-10-11T16:46:34.247Z,15.70
2022-10-11T16:49:02.375Z,17.70
2022-10-11T16:51:30.820Z,17.30
2022-10-11T16:53:58.729Z,18.60
2022-10-11T16:56:28.161Z,16.40
2022-10-11T16:58:56.022Z,16.10
2022-10-11T17:01:24.627Z,13.10
2022-10-11T17:03:52.483Z,12.30
2022-10-11T17:06:20.242Z,12.10
2022-10-11T17:08:47.992Z,10.50
2022-10-11T17:11:17.613Z,12.50
2022-10-11T17:13:45.797Z,10.80
2022-10-11T17:16:13.569Z,13.20
2022-10-11T17:18:41.730Z,47.90
2022-10-11T17:21:11.881Z,30.00
2022-10-11T17:23:39.678Z,18.40
2022-10-11T17:26:11.357Z,19.90
2022-10-11T17:28:39.554Z,12.70
2022-10-11T17:31:08.003Z,20.40
2022-10-11T17:33:40.320Z,20.80
2022-10-11T17:36:14.333Z,16.30
2022-10-11T17:41:15.240Z,13.70
2022-10-11T17:43:49.406Z,17.20
2022-10-11T17:46:17.925Z,14.40
2022-10-11T17:48:45.787Z,16.20
2022-10-11T17:51:18.391Z,33.00
2022-10-11T17:53:51.058Z,47.90
2022-10-11T17:56:29.542Z,30.50
2022-10-11T17:58:59.422Z,13.60
2022-10-11T18:01:29.194Z,12.00
2022-10-11T18:04:01.638Z,12.50
2022-10-11T18:06:30.862Z,20.20
2022-10-11T18:09:02.461Z,22.50
2022-10-11T18:11:30.468Z,14.40
2022-10-11T18:13:58.650Z,14.60
2022-10-11T18:16:27.629Z,17.30
2022-10-11T18:18:57.616Z,14.70
2022-10-11T18:21:28.798Z,11.70
2022-10-11T18:24:02.326Z,10.40
2022-10-11T18:26:37.011Z,10.50
2022-10-11T18:29:09.073Z,14.40
2022-10-11T18:31:37.006Z,11.50
2022-10-11T18:34:05.898Z,12.20
2022-10-11T18:36:33.648Z,18.40
2022-10-11T18:39:02.702Z,12.70
2022-10-11T18:41:31.922Z,12.50
2022-10-11T18:44:01.268Z,12.40
2022-10-11T18:46:35.632Z,13.80
2022-10-11T18:49:03.907Z,18.10
2022-10-11T18:51:33.480Z,19.40
2022-10-11T18:54:01.736Z,20.70
2022-10-11T18:56:30.593Z,15.40
2022-10-11T18:58:59.281Z,12.50
2022-10-11T19:01:28.748Z,11.70
2022-10-11T19:03:58.221Z,14.20
2022-10-11T19:06:28.553Z,16.70
2022-10-11T19:09:00.465Z,15.10
2022-10-11T19:11:28.360Z,14.10
2022-10-11T19:14:02.659Z,15.60
2022-10-11T19:16:30.925Z,14.60
2022-10-11T19:18:59.400Z,15.10
2022-10-11T19:21:27.478Z,13.10
2022-10-11T19:23:55.858Z,13.40
2022-10-11T19:26:26.706Z,13.30
2022-10-11T19:28:56.303Z,11.70
2022-10-11T19:31:25.812Z,10.40
2022-10-11T19:33:53.544Z,10.80
2022-10-11T19:36:21.200Z,10.70
2022-10-11T19:38:50.256Z,10.00
2022-10-11T19:41:19.172Z,8.80
2022-10-11T19:43:47.015Z,9.80
2022-10-11T19:46:27.391Z,10.10
2022-10-11T19:49:06.874Z,12.00
2022-10-11T19:51:35.284Z,12.40
2022-10-11T19:54:08.302Z,13.70
2022-10-11T19:56:36.023Z,14.20
2022-10-11T19:59:06.483Z,15.20
2022-10-11T20:01:41.660Z,13.80
2022-10-11T20:04:18.782Z,13.30
2022-10-11T20:06:58.522Z,17.30
2022-10-11T20:09:30.571Z,17.00
2022-10-11T20:12:01.574Z,20.10
2022-10-11T20:14:29.181Z,20.80
2022-10-11T20:16:56.792Z,21.40
2022-10-11T20:19:30.620Z,21.30
2022-10-11T20:21:59.698Z,21.00
2022-10-11T20:24:32.619Z,20.20
2022-10-11T20:27:02.400Z,20.20
2022-10-11T20:29:30.207Z,18.90
2022-10-11T20:31:59.083Z,18.00
2022-10-11T20:34:27.682Z,16.60
2022-10-11T20:36:56.064Z,20.70
2022-10-11T20:39:27.010Z,15.90
2022-10-11T20:41:54.925Z,15.40
2022-10-11T20:44:22.613Z,15.30
2022-10-11T20:46:50.412Z,17.40
2022-10-11T20:49:20.038Z,17.50
2022-10-11T20:51:48.142Z,18.90
2022-10-11T20:54:16.088Z,19.40
2022-10-11T20:56:43.801Z,18.80
2022-10-11T20:59:11.605Z,20.60
2022-10-11T21:01:40.659Z,22.00
2022-10-11T21:04:16.723Z,17.50
2022-10-11T21:06:44.710Z,17.40
2022-10-11T21:09:15.483Z,16.60
2022-10-11T21:11:44.958Z,17.20
2022-10-11T21:14:12.647Z,16.80
2022-10-11T21:16:40.294Z,16.00
2022-10-11T21:19:12.235Z,17.30
2022-10-11T21:21:40.047Z,17.30
2022-10-11T21:24:08.527Z,17.90
2022-10-11T21:26:36.340Z,16.90
2022-10-11T21:29:04.287Z,18.40
2022-10-11T21:31:34.445Z,15.80
2022-10-11T21:34:05.242Z,18.60
2022-10-11T21:36:33.040Z,17.70
2022-10-11T21:39:00.871Z,20.50
2022-10-11T21:41:30.299Z,25.20
2022-10-11T21:43:58.963Z,40.30
2022-10-11T21:46:47.416Z,32.60
2022-10-11T21:49:15.747Z,42.90
2022-10-11T21:51:43.776Z,29.90
2022-10-11T21:54:11.741Z,32.20
2022-10-11T21:56:39.787Z,35.60
2022-10-11T21:59:11.155Z,43.70
2022-10-11T22:01:46.991Z,42.90
2022-10-11T22:04:14.685Z,35.50
2022-10-11T22:06:42.714Z,24.80
2022-10-11T22:09:11.537Z,26.00
2022-10-11T22:11:39.325Z,19.40
2022-10-11T22:14:07.179Z,19.90
2022-10-11T22:16:36.037Z,18.30
2022-10-11T22:19:05.226Z,18.90
2022-10-11T22:21:33.059Z,20.50
2022-10-11T22:24:00.820Z,20.00
2022-10-11T22:26:30.906Z,15.80
2022-10-11T22:29:00.448Z,15.90
2022-10-11T22:31:29.499Z,16.20
2022-10-11T22:33:58.416Z,16.10
2022-10-11T22:36:26.595Z,16.30
2022-10-11T22:38:54.803Z,18.00
2022-10-11T22:41:22.991Z,17.50
2022-10-11T22:43:50.804Z,17.50
2022-10-11T22:46:18.512Z,19.40
2022-10-11T22:48:46.219Z,22.80
2022-10-11T22:51:14.525Z,39.20
2022-10-11T22:53:49.204Z,47.30
2022-10-11T22:56:17.165Z,32.00
2022-10-11T22:58:45.657Z,23.60
2022-10-11T23:01:15.414Z,21.20
2022-10-11T23:03:43.230Z,33.50
2022-10-11T23:06:11.038Z,32.90
2022-10-11T23:08:38.760Z,24.00
2022-10-11T23:11:07.231Z,34.30
2022-10-11T23:13:35.219Z,30.80
2022-10-11T23:16:10.331Z,29.80
2022-10-11T23:18:38.637Z,25.80
2022-10-11T23:21:06.720Z,20.70
2022-10-11T23:23:34.499Z,14.20
2022-10-11T23:26:07.683Z,13.20
2022-10-11T23:28:35.729Z,13.50
2022-10-11T23:31:10.312Z,12.70
2022-10-11T23:33:38.631Z,14.40
2022-10-11T23:36:06.767Z,14.80
2022-10-11T23:38:34.337Z,14.10
2022-10-11T23:41:02.072Z,12.80
2022-10-11T23:43:29.988Z,14.70
2022-10-11T23:45:57.781Z,13.70
2022-10-11T23:48:25.525Z,12.90
2022-10-11T23:50:59.920Z,14.90
2022-10-11T23:53:27.577Z,13.20
2022-10-11T23:55:55.423Z,13.70
2022-10-11T23:58:25.875Z,12.50
